createdAt,value
2018-03-21T00:01:22.303Z,5.93
2018-03-21T00:03:50.668Z,7.17
2018-03-21T00:06:18.231Z,3.53
2018-03-21T00:08:45.779Z,1.93
2018-03-21T00:11:14.084Z,2.90
2018-03-21T00:13:42.399Z,2.20
2018-03-21T00:16:09.932Z,3.10
2018-03-21T00:18:37.494Z,4.63
2018-03-21T00:21:05.027Z,5.73
2018-03-21T00:23:33.349Z,7.37
2018-03-21T00:26:00.884Z,2.80
2018-03-21T00:28:28.448Z,2.87
2018-03-21T00:30:55.997Z,2.90
2018-03-21T00:33:24.325Z,4.50
2018-03-21T00:35:51.864Z,2.67
2018-03-21T00:38:20.200Z,3.07
2018-03-21T00:40:47.758Z,3.90
2018-03-21T00:43:15.333Z,2.47
2018-03-21T00:45:43.636Z,3.30
2018-03-21T00:48:11.964Z,3.50
2018-03-21T00:50:39.508Z,2.40
2018-03-21T00:53:07.070Z,4.00
2018-03-21T00:55:34.637Z,10.90
2018-03-21T00:58:02.209Z,4.93
2018-03-21T01:00:29.771Z,4.00
2018-03-21T01:02:58.077Z,1.83
2018-03-21T01:05:25.646Z,2.27
2018-03-21T01:07:53.966Z,5.33
2018-03-21T01:10:21.527Z,4.73
2018-03-21T01:12:49.832Z,8.37
2018-03-21T01:15:17.391Z,2.30
2018-03-21T01:17:44.923Z,5.03
2018-03-21T01:20:12.477Z,7.87
2018-03-21T01:22:40.016Z,3.57
2018-03-21T01:25:07.569Z,2.10
2018-03-21T01:27:35.880Z,3.70
2018-03-21T01:30:03.440Z,4.00
2018-03-21T01:32:30.976Z,2.00
2018-03-21T01:34:58.528Z,1.77
2018-03-21T01:37:26.071Z,5.97
2018-03-21T01:39:53.631Z,6.00
2018-03-21T01:42:21.181Z,6.40
2018-03-21T01:44:48.768Z,2.13
2018-03-21T01:47:16.331Z,7.73
2018-03-21T01:49:43.909Z,4.90
2018-03-21T01:52:12.387Z,4.57
2018-03-21T01:54:39.945Z,7.33
2018-03-21T01:57:07.491Z,4.93
2018-03-21T01:59:35.809Z,3.30
2018-03-21T02:02:03.696Z,4.73
2018-03-21T02:04:31.336Z,11.73
2018-03-21T02:06:58.871Z,6.37
2018-03-21T02:09:26.453Z,6.00
2018-03-21T02:11:54.753Z,3.90
2018-03-21T02:14:23.075Z,10.90
2018-03-21T02:16:50.604Z,4.50
2018-03-21T02:19:18.189Z,2.20
2018-03-21T02:21:45.724Z,3.67
2018-03-21T02:24:13.260Z,6.97
2018-03-21T02:26:40.807Z,2.60
2018-03-21T02:29:08.369Z,2.27
2018-03-21T02:31:35.931Z,5.17
2018-03-21T02:34:04.260Z,5.87
2018-03-21T02:36:31.825Z,4.60
2018-03-21T02:39:00.133Z,6.53
2018-03-21T02:41:27.685Z,6.30
2018-03-21T02:43:55.244Z,4.50
2018-03-21T02:46:26.411Z,8.53
2018-03-21T02:48:53.962Z,5.87
2018-03-21T02:51:21.565Z,4.70
2018-03-21T02:53:49.109Z,8.63
2018-03-21T02:56:17.432Z,13.60
2018-03-21T02:58:44.965Z,6.17
2018-03-21T03:01:13.283Z,5.73
2018-03-21T03:03:40.828Z,8.33
2018-03-21T03:06:08.412Z,6.93
2018-03-21T03:08:35.951Z,6.10
2018-03-21T03:11:04.281Z,12.60
2018-03-21T03:13:31.831Z,9.73
2018-03-21T03:15:59.383Z,3.67
2018-03-21T03:18:26.948Z,7.30
2018-03-21T03:20:54.500Z,6.47
2018-03-21T03:23:22.808Z,2.30
2018-03-21T03:25:50.380Z,4.20
2018-03-21T03:28:18.684Z,2.90
2018-03-21T03:30:47.000Z,6.00
2018-03-21T03:33:14.591Z,4.97
2018-03-21T03:35:42.120Z,6.13
2018-03-21T03:38:09.685Z,3.07
2018-03-21T03:40:37.229Z,11.93
2018-03-21T03:43:04.791Z,6.73
2018-03-21T03:45:32.328Z,6.97
2018-03-21T03:48:00.443Z,10.30
2018-03-21T03:50:27.985Z,2.17
2018-03-21T03:52:56.311Z,2.93
2018-03-21T03:55:23.852Z,4.73
2018-03-21T03:57:51.409Z,9.37
2018-03-21T04:00:18.944Z,7.20
2018-03-21T04:02:47.260Z,8.87
2018-03-21T04:05:14.828Z,10.97
2018-03-21T04:07:43.160Z,6.00
2018-03-21T04:10:10.692Z,4.00
2018-03-21T04:12:38.253Z,11.00
2018-03-21T04:15:05.793Z,3.77
2018-03-21T04:17:33.352Z,3.80
2018-03-21T04:20:00.886Z,3.17
2018-03-21T04:22:28.476Z,6.57
2018-03-21T04:24:56.026Z,7.97
2018-03-21T04:27:24.355Z,2.73
2018-03-21T04:29:52.149Z,2.67
2018-03-21T04:32:19.713Z,3.73
2018-03-21T04:34:48.544Z,3.90
2018-03-21T04:37:16.872Z,6.40
2018-03-21T04:39:44.404Z,3.77
2018-03-21T04:42:11.964Z,3.60
2018-03-21T04:44:39.557Z,6.97
2018-03-21T04:47:07.560Z,7.20
2018-03-21T04:49:35.099Z,3.83
2018-03-21T04:52:03.423Z,6.00
2018-03-21T04:54:30.967Z,2.00
2018-03-21T04:56:58.506Z,2.87
2018-03-21T04:59:26.059Z,8.23
2018-03-21T05:01:54.929Z,3.37
2018-03-21T05:04:22.501Z,5.40
2018-03-21T05:06:50.041Z,7.60
2018-03-21T05:09:18.383Z,5.97
2018-03-21T05:11:46.340Z,6.90
2018-03-21T05:14:19.852Z,8.50
2018-03-21T05:16:47.392Z,7.27
2018-03-21T05:19:14.943Z,9.47
2018-03-21T05:21:43.255Z,6.10
2018-03-21T05:24:10.813Z,12.43
2018-03-21T05:26:38.346Z,27.83
2018-03-21T05:29:05.899Z,17.37
2018-03-21T05:31:33.440Z,16.60
2018-03-21T05:34:00.999Z,12.73
2018-03-21T05:36:28.536Z,9.47
2018-03-21T05:38:56.088Z,8.43
2018-03-21T05:41:23.630Z,11.83
2018-03-21T05:43:51.969Z,11.63
2018-03-21T05:46:19.513Z,11.90
2018-03-21T05:48:47.856Z,7.13
2018-03-21T05:51:15.396Z,5.57
2018-03-21T05:53:43.712Z,5.30
2018-03-21T05:56:11.248Z,7.90
2018-03-21T05:58:39.572Z,3.37
2018-03-21T06:01:07.117Z,7.23
2018-03-21T06:03:34.672Z,9.23
2018-03-21T06:06:02.214Z,3.10
2018-03-21T06:08:29.779Z,10.80
2018-03-21T06:10:57.320Z,2.63
2018-03-21T06:13:24.872Z,8.90
2018-03-21T06:15:52.454Z,6.43
2018-03-21T06:18:19.975Z,2.50
2018-03-21T06:20:47.532Z,2.70
2018-03-21T06:23:15.831Z,4.37
2018-03-21T06:25:44.152Z,2.80
2018-03-21T06:28:11.701Z,4.63
2018-03-21T06:30:39.261Z,3.30
2018-03-21T06:33:06.800Z,3.60
2018-03-21T06:35:34.360Z,2.80
2018-03-21T06:38:01.934Z,4.50
2018-03-21T06:40:29.467Z,6.00
2018-03-21T06:42:57.030Z,5.70
2018-03-21T06:45:25.496Z,3.73
2018-03-21T06:47:53.029Z,2.77
2018-03-21T06:50:21.355Z,6.37
2018-03-21T06:52:48.907Z,3.00
2018-03-21T06:55:17.228Z,6.43
2018-03-21T06:57:44.760Z,2.90
2018-03-21T07:00:12.316Z,6.37
2018-03-21T07:02:39.848Z,3.53
2018-03-21T07:05:08.189Z,4.60
2018-03-21T07:07:35.729Z,8.20
2018-03-21T07:10:03.284Z,9.50
2018-03-21T07:12:30.820Z,7.37
2018-03-21T07:15:10.246Z,2.87
2018-03-21T07:17:37.792Z,7.13
2018-03-21T07:20:05.349Z,6.50
2018-03-21T07:22:33.652Z,5.70
2018-03-21T07:25:01.224Z,8.67
2018-03-21T07:27:29.527Z,7.07
2018-03-21T07:29:57.832Z,6.23
2018-03-21T07:32:26.156Z,10.90
2018-03-21T07:34:53.744Z,16.90
2018-03-21T07:37:21.309Z,13.00
2018-03-21T07:39:48.856Z,14.53
2018-03-21T07:42:16.424Z,11.07
2018-03-21T07:44:43.969Z,10.87
2018-03-21T07:47:11.536Z,7.50
2018-03-21T07:49:39.088Z,5.43
2018-03-21T07:52:06.643Z,10.13
2018-03-21T07:54:34.176Z,8.23
2018-03-21T07:57:02.504Z,8.47
2018-03-21T07:59:30.060Z,6.37
2018-03-21T08:01:57.648Z,4.70
2018-03-21T08:04:25.195Z,6.50
2018-03-21T08:06:53.880Z,15.00
2018-03-21T08:09:21.481Z,3.60
2018-03-21T08:11:49.160Z,12.60
2018-03-21T08:14:16.726Z,4.73
2018-03-21T08:16:44.293Z,8.43
2018-03-21T08:19:12.603Z,7.43
2018-03-21T08:21:40.938Z,4.87
2018-03-21T08:24:08.497Z,5.13
2018-03-21T08:26:36.064Z,4.27
2018-03-21T08:29:05.246Z,8.20
2018-03-21T08:31:34.136Z,4.10
2018-03-21T08:34:02.101Z,5.70
2018-03-21T08:36:30.641Z,9.03
2018-03-21T08:38:58.173Z,7.43
2018-03-21T08:41:25.728Z,11.10
2018-03-21T08:43:54.165Z,10.73
2018-03-21T08:46:21.723Z,3.20
2018-03-21T08:48:50.128Z,5.00
2018-03-21T08:51:17.688Z,5.73
2018-03-21T08:53:46.540Z,4.70
2018-03-21T08:56:14.081Z,6.60
2018-03-21T08:58:41.636Z,4.50
2018-03-21T09:01:11.207Z,3.93
2018-03-21T09:03:38.761Z,2.77
2018-03-21T09:06:06.303Z,10.67
2018-03-21T09:08:33.849Z,4.50
2018-03-21T09:11:01.392Z,5.17
2018-03-21T09:13:28.956Z,1.90
2018-03-21T09:16:03.916Z,4.30
2018-03-21T09:18:31.480Z,7.67
2018-03-21T09:20:59.040Z,6.13
2018-03-21T09:23:26.595Z,3.13
2018-03-21T09:25:55.684Z,3.13
2018-03-21T09:28:23.248Z,2.17
2018-03-21T09:30:50.796Z,8.00
2018-03-21T09:33:18.362Z,3.10
2018-03-21T09:35:46.672Z,2.60
2018-03-21T09:38:15.004Z,4.23
2018-03-21T09:40:43.953Z,3.37
2018-03-21T09:43:11.504Z,4.10
2018-03-21T09:45:39.065Z,2.70
2018-03-21T09:48:07.392Z,5.20
2018-03-21T09:50:34.925Z,2.73
2018-03-21T09:53:04.916Z,1.67
2018-03-21T09:55:32.452Z,2.23
2018-03-21T09:58:00.423Z,3.63
2018-03-21T10:00:27.960Z,3.20
2018-03-21T10:02:55.523Z,4.30
2018-03-21T10:05:25.898Z,2.10
2018-03-21T10:07:53.518Z,1.93
2018-03-21T10:10:21.025Z,1.50
2018-03-21T10:12:48.564Z,6.23
2018-03-21T10:15:16.120Z,6.57
2018-03-21T10:17:44.437Z,1.60
2018-03-21T10:20:15.082Z,1.53
2018-03-21T10:22:42.645Z,6.40
2018-03-21T10:25:10.192Z,3.27
2018-03-21T10:27:37.720Z,2.87
2018-03-21T10:30:06.040Z,1.93
2018-03-21T10:32:35.296Z,3.13
2018-03-21T10:35:02.848Z,1.93
2018-03-21T10:37:30.386Z,2.53
2018-03-21T10:39:57.944Z,1.90
2018-03-21T10:42:25.501Z,2.57
2018-03-21T10:44:54.354Z,8.60
2018-03-21T10:47:21.904Z,3.57
2018-03-21T10:49:49.472Z,6.93
2018-03-21T10:52:17.826Z,3.67
2018-03-21T10:54:45.481Z,2.40
2018-03-21T10:57:13.018Z,8.00
2018-03-21T10:59:40.577Z,1.53
2018-03-21T11:02:13.948Z,3.50
2018-03-21T11:04:42.285Z,9.73
2018-03-21T11:07:09.843Z,2.30
2018-03-21T11:09:37.430Z,2.70
2018-03-21T11:12:04.975Z,3.77
2018-03-21T11:14:32.544Z,3.07
2018-03-21T11:17:00.072Z,4.50
2018-03-21T11:19:28.389Z,7.13
2018-03-21T11:21:55.943Z,4.00
2018-03-21T11:24:23.495Z,5.77
2018-03-21T11:26:52.792Z,2.50
2018-03-21T11:29:20.353Z,1.50
2018-03-21T11:31:47.895Z,3.40
2018-03-21T11:34:15.429Z,2.53
2018-03-21T11:36:42.976Z,4.83
2018-03-21T11:39:10.516Z,3.50
2018-03-21T11:41:38.073Z,3.37
2018-03-21T11:44:05.615Z,5.63
2018-03-21T11:46:33.168Z,4.13
2018-03-21T11:49:00.700Z,4.23
2018-03-21T11:51:28.252Z,4.73
2018-03-21T11:53:55.787Z,2.80
2018-03-21T11:56:24.107Z,3.03
2018-03-21T11:58:51.666Z,7.93
2018-03-21T12:01:19.984Z,3.73
2018-03-21T12:03:47.517Z,3.80
2018-03-21T12:06:15.074Z,1.77
2018-03-21T12:08:42.656Z,3.67
2018-03-21T12:11:10.180Z,6.60
2018-03-21T12:13:38.536Z,5.20
2018-03-21T12:16:06.088Z,5.40
2018-03-21T12:18:34.393Z,3.60
2018-03-21T12:21:02.710Z,4.00
2018-03-21T12:23:30.244Z,4.23
2018-03-21T12:25:57.796Z,4.23
2018-03-21T12:28:25.332Z,2.23
2018-03-21T12:30:52.875Z,7.40
2018-03-21T12:33:21.347Z,9.20
2018-03-21T12:35:48.904Z,4.73
2018-03-21T12:38:17.199Z,2.23
2018-03-21T12:40:44.781Z,11.23
2018-03-21T12:43:13.788Z,6.63
2018-03-21T12:45:41.657Z,1.90
2018-03-21T12:48:09.187Z,2.63
2018-03-21T12:50:37.496Z,4.80
2018-03-21T12:53:05.836Z,5.73
2018-03-21T12:55:33.368Z,2.20
2018-03-21T12:58:00.923Z,9.07
2018-03-21T13:00:28.452Z,8.13
2018-03-21T13:02:56.773Z,3.03
2018-03-21T13:05:24.334Z,1.93
2018-03-21T13:07:52.667Z,2.33
2018-03-21T13:10:20.236Z,5.40
2018-03-21T13:12:47.848Z,3.73
2018-03-21T13:15:16.369Z,3.97
2018-03-21T13:17:44.896Z,6.17
2018-03-21T13:20:13.204Z,2.03
2018-03-21T13:22:40.760Z,3.53
2018-03-21T13:25:08.293Z,4.93
2018-03-21T13:27:36.608Z,3.43
2018-03-21T13:30:04.176Z,6.37
2018-03-21T13:32:32.492Z,9.47
2018-03-21T13:35:00.065Z,3.17
2018-03-21T13:37:28.445Z,6.37
2018-03-21T13:39:56.712Z,7.37
2018-03-21T13:42:25.868Z,3.27
2018-03-21T13:44:53.421Z,8.33
2018-03-21T13:47:21.244Z,4.00
2018-03-21T13:49:48.829Z,4.23
2018-03-21T13:52:16.513Z,4.07
2018-03-21T13:54:44.056Z,3.33
2018-03-21T13:57:11.604Z,8.53
2018-03-21T13:59:39.133Z,2.70
2018-03-21T14:02:06.680Z,5.37
2018-03-21T14:04:35.903Z,4.40
2018-03-21T14:07:03.515Z,2.97
2018-03-21T14:09:31.052Z,4.50
2018-03-21T14:11:58.593Z,1.90
2018-03-21T14:14:26.143Z,3.83
2018-03-21T14:16:54.444Z,5.07
2018-03-21T14:19:24.193Z,4.10
2018-03-21T14:21:51.725Z,3.47
2018-03-21T14:24:20.750Z,4.27
2018-03-21T14:26:48.287Z,5.77
2018-03-21T14:29:16.604Z,2.27
2018-03-21T14:31:44.132Z,2.37
2018-03-21T14:34:11.736Z,4.27
2018-03-21T14:36:39.279Z,6.80
2018-03-21T14:39:06.828Z,2.03
2018-03-21T14:41:35.129Z,2.30
2018-03-21T14:44:03.455Z,4.93
2018-03-21T14:46:30.988Z,3.60
2018-03-21T14:49:00.509Z,2.33
2018-03-21T14:51:28.046Z,2.80
2018-03-21T14:53:55.604Z,4.93
2018-03-21T14:56:23.139Z,5.13
2018-03-21T14:58:51.848Z,2.90
2018-03-21T15:01:19.381Z,2.80
2018-03-21T15:03:46.948Z,3.40
2018-03-21T15:06:14.487Z,3.97
2018-03-21T15:08:42.049Z,2.23
2018-03-21T15:11:10.354Z,3.77
2018-03-21T15:13:39.217Z,2.10
2018-03-21T15:16:06.776Z,9.70
2018-03-21T15:18:34.331Z,3.13
2018-03-21T15:21:02.640Z,1.60
2018-03-21T15:23:30.982Z,2.50
2018-03-21T15:25:58.512Z,2.13
2018-03-21T15:28:26.098Z,2.90
2018-03-21T15:30:53.652Z,1.70
2018-03-21T15:33:21.184Z,1.97
2018-03-21T15:35:48.756Z,7.10
2018-03-21T15:38:17.065Z,6.83
2018-03-21T15:40:44.626Z,4.73
2018-03-21T15:43:12.155Z,3.80
2018-03-21T15:45:39.727Z,3.67
2018-03-21T15:48:07.263Z,6.67
2018-03-21T15:50:34.819Z,4.33
2018-03-21T15:53:02.354Z,5.13
2018-03-21T15:55:30.683Z,5.37
2018-03-21T15:57:58.224Z,3.90
2018-03-21T16:00:25.780Z,6.13
2018-03-21T16:02:53.321Z,7.47
2018-03-21T16:05:21.645Z,2.90
2018-03-21T16:07:49.176Z,5.00
2018-03-21T16:10:16.741Z,5.77
2018-03-21T16:12:44.272Z,3.43
2018-03-21T16:15:12.596Z,6.57
2018-03-21T16:17:40.153Z,4.57
2018-03-21T16:20:07.732Z,2.80
2018-03-21T16:22:35.849Z,4.10
2018-03-21T16:25:03.404Z,2.77
2018-03-21T16:27:30.956Z,5.30
2018-03-21T16:29:58.521Z,6.60
2018-03-21T16:32:26.060Z,5.90
2018-03-21T16:34:54.350Z,2.97
2018-03-21T16:37:22.733Z,3.63
2018-03-21T16:39:50.288Z,8.70
2018-03-21T16:42:17.843Z,2.60
2018-03-21T16:44:46.164Z,6.33
2018-03-21T16:47:13.704Z,8.10
2018-03-21T16:49:41.266Z,5.03
2018-03-21T16:52:08.827Z,15.33
2018-03-21T16:54:36.504Z,4.50
2018-03-21T16:57:04.098Z,7.20
2018-03-21T16:59:31.624Z,6.37
2018-03-21T17:01:59.183Z,7.00
2018-03-21T17:04:26.720Z,5.53
2018-03-21T17:06:55.058Z,5.10
2018-03-21T17:09:22.592Z,3.60
2018-03-21T17:11:50.144Z,2.40
2018-03-21T17:14:17.755Z,4.90
2018-03-21T17:16:45.320Z,3.37
2018-03-21T17:19:12.863Z,2.13
2018-03-21T17:21:40.440Z,5.90
2018-03-21T17:24:07.975Z,8.57
2018-03-21T17:26:35.527Z,4.87
2018-03-21T17:29:03.067Z,2.70
2018-03-21T17:31:31.389Z,3.07
2018-03-21T17:33:58.928Z,3.03
2018-03-21T17:36:26.477Z,9.07
2018-03-21T17:38:54.036Z,2.17
2018-03-21T17:41:22.355Z,2.10
2018-03-21T17:43:49.898Z,7.43
2018-03-21T17:46:17.467Z,5.63
2018-03-21T17:48:44.996Z,3.30
2018-03-21T17:51:13.540Z,5.23
2018-03-21T17:53:41.072Z,1.50
2018-03-21T17:56:08.650Z,7.17
2018-03-21T17:58:36.205Z,5.47
2018-03-21T18:01:03.792Z,7.67
2018-03-21T18:03:31.334Z,2.73
2018-03-21T18:05:58.875Z,9.60
2018-03-21T18:08:26.483Z,3.40
2018-03-21T18:10:54.844Z,4.17
2018-03-21T18:13:22.400Z,2.50
2018-03-21T18:15:49.953Z,3.90
2018-03-21T18:18:18.311Z,2.20
2018-03-21T18:20:45.851Z,5.83
2018-03-21T18:23:13.400Z,3.00
2018-03-21T18:25:40.928Z,2.50
2018-03-21T18:28:08.479Z,7.37
2018-03-21T18:30:36.782Z,4.20
2018-03-21T18:33:05.107Z,2.47
2018-03-21T18:35:32.666Z,2.20
2018-03-21T18:38:00.773Z,5.83
2018-03-21T18:40:29.077Z,5.90
2018-03-21T18:42:57.401Z,4.50
2018-03-21T18:45:24.958Z,2.20
2018-03-21T18:47:53.293Z,21.57
2018-03-21T18:50:20.827Z,6.73
2018-03-21T18:52:48.386Z,5.40
2018-03-21T18:55:15.949Z,4.80
2018-03-21T18:57:43.525Z,3.27
2018-03-21T19:00:11.061Z,3.77
2018-03-21T19:02:38.612Z,7.23
2018-03-21T19:05:06.140Z,4.40
2018-03-21T19:07:34.457Z,2.87
2018-03-21T19:10:02.775Z,7.37
2018-03-21T19:12:30.451Z,6.10
2018-03-21T19:14:58.028Z,4.87
2018-03-21T19:17:25.590Z,8.70
2018-03-21T19:19:53.167Z,17.23
2018-03-21T19:22:20.741Z,6.10
2018-03-21T19:24:48.288Z,2.87
2018-03-21T19:27:15.826Z,2.80
2018-03-21T19:29:44.148Z,6.83
2018-03-21T19:32:11.685Z,6.83
2018-03-21T19:34:39.277Z,15.80
2018-03-21T19:37:06.908Z,10.60
2018-03-21T19:39:34.459Z,5.17
2018-03-21T19:42:02.012Z,6.50
2018-03-21T19:44:30.338Z,7.70
2018-03-21T19:46:57.900Z,7.27
2018-03-21T19:49:26.220Z,6.73
2018-03-21T19:52:00.164Z,5.80
2018-03-21T19:54:31.394Z,9.03
2018-03-21T19:56:58.924Z,6.70
2018-03-21T19:59:26.522Z,16.33
2018-03-21T20:01:54.056Z,10.87
2018-03-21T20:04:21.869Z,6.00
2018-03-21T20:06:49.691Z,16.53
2018-03-21T20:09:17.250Z,9.33
2018-03-21T20:11:51.301Z,11.17
2018-03-21T20:14:20.025Z,8.40
2018-03-21T20:16:47.556Z,11.10
2018-03-21T20:19:15.135Z,8.33
2018-03-21T20:21:42.704Z,11.93
2018-03-21T20:24:10.259Z,9.90
2018-03-21T20:26:38.556Z,9.07
2018-03-21T20:29:07.876Z,9.63
2018-03-21T20:31:35.411Z,13.73
2018-03-21T20:36:36.765Z,8.93
2018-03-21T20:39:04.347Z,7.37
2018-03-21T20:41:31.880Z,8.27
2018-03-21T20:43:59.442Z,11.70
2018-03-21T20:46:26.981Z,7.83
2018-03-21T20:48:54.517Z,13.50
2018-03-21T20:51:22.841Z,8.37
2018-03-21T20:53:50.368Z,16.57
2018-03-21T20:56:17.961Z,9.73
2018-03-21T20:58:45.505Z,15.00
2018-03-21T21:01:13.061Z,10.70
2018-03-21T21:03:40.600Z,10.63
2018-03-21T21:06:08.152Z,21.77
2018-03-21T21:08:35.692Z,9.27
2018-03-21T21:11:04.020Z,10.07
2018-03-21T21:13:31.553Z,16.80
2018-03-21T21:15:59.104Z,7.60
2018-03-21T21:18:26.636Z,16.60
2018-03-21T21:20:54.188Z,16.40
2018-03-21T21:23:21.720Z,18.93
2018-03-21T21:25:50.040Z,10.80
2018-03-21T21:28:17.576Z,9.13
2018-03-21T21:30:45.134Z,15.60
2018-03-21T21:33:12.684Z,16.23
2018-03-21T21:35:40.235Z,11.37
2018-03-21T21:38:07.769Z,19.43
2018-03-21T21:40:35.312Z,8.30
2018-03-21T21:43:02.851Z,13.10
2018-03-21T21:45:30.402Z,9.10
2018-03-21T21:47:57.956Z,14.83
2018-03-21T21:50:25.504Z,13.53
2018-03-21T21:52:53.036Z,16.83
2018-03-21T21:55:21.356Z,16.17
2018-03-21T21:57:49.664Z,18.70
2018-03-21T22:00:17.984Z,16.50
2018-03-21T22:02:45.516Z,15.33
2018-03-21T22:05:13.047Z,10.00
2018-03-21T22:07:41.372Z,13.33
2018-03-21T22:10:08.906Z,13.53
2018-03-21T22:12:38.536Z,17.77
2018-03-21T22:15:06.067Z,14.40
2018-03-21T22:17:33.623Z,17.97
2018-03-21T22:20:01.927Z,14.60
2018-03-21T22:22:30.246Z,16.23
2018-03-21T22:24:57.784Z,20.47
2018-03-21T22:27:25.416Z,13.50
2018-03-21T22:29:52.959Z,18.73
2018-03-21T22:32:20.513Z,12.53
2018-03-21T22:34:48.039Z,13.37
2018-03-21T22:37:15.587Z,19.50
2018-03-21T22:39:43.111Z,12.57
2018-03-21T22:42:11.419Z,13.97
2018-03-21T22:44:39.711Z,14.93
2018-03-21T22:47:08.024Z,12.60
2018-03-21T22:49:36.318Z,16.27
2018-03-21T22:52:04.638Z,13.60
2018-03-21T22:54:32.205Z,14.60
2018-03-21T22:56:59.733Z,7.70
2018-03-21T22:59:27.264Z,9.00
2018-03-21T23:01:54.814Z,19.43
2018-03-21T23:04:22.348Z,12.67
2018-03-21T23:06:50.668Z,10.90
2018-03-21T23:09:18.209Z,16.80
2018-03-21T23:11:45.760Z,18.67
2018-03-21T23:14:13.298Z,9.97
2018-03-21T23:16:41.615Z,20.33
2018-03-21T23:19:09.148Z,20.27
2018-03-21T23:21:36.705Z,21.60
2018-03-21T23:24:04.248Z,15.57
2018-03-21T23:26:32.552Z,19.97
2018-03-21T23:29:00.868Z,17.43
2018-03-21T23:31:28.406Z,23.17
2018-03-21T23:33:55.956Z,23.50
2018-03-21T23:36:23.492Z,22.63
2018-03-21T23:38:51.055Z,27.03
2018-03-21T23:41:18.596Z,25.63
2018-03-21T23:43:46.164Z,28.53
2018-03-21T23:46:14.466Z,24.87
2018-03-21T23:48:42.793Z,22.10
2018-03-21T23:51:10.334Z,24.10
2018-03-21T23:53:37.888Z,23.10
2018-03-21T23:56:05.426Z,29.27
2018-03-21T23:58:32.984Z,24.73
